Time;durP1;ratioP1;P1;durP2;ratioP2;P2;SDS_P1;SDS_P2;PMS_P1;PMS_P2;Temp;Humidity;BMP_temperature;BMP_pressure;BME280_temperature;BME280_humidity;BME280_pressure;Samples;Min_cycle;Max_cycle;Signal;HPM_P1;HPM_P2
2022/10/05 00:00:52;;;;;;;4.20;3.43;;;;;;;;;;5094495;28;20874;-59
2022/10/05 00:03:19;;;;;;;4.33;3.00;;;;;;;;;;5094246;28;20449;-59
2022/10/05 00:05:46;;;;;;;8.60;3.47;;;;;;;;;;5094117;28;20450;-59
2022/10/05 00:08:14;;;;;;;5.07;3.77;;;;;;;;;;5094356;28;20872;-58
2022/10/05 00:10:42;;;;;;;3.40;3.10;;;;;;;;;;5094216;28;20449;-58
2022/10/05 00:13:12;;;;;;;4.50;2.93;;;;;;;;;;5094170;28;20537;-58
2022/10/05 00:15:39;;;;;;;4.30;3.30;;;;;;;;;;5094025;28;20997;-58
2022/10/05 00:18:13;;;;;;;3.53;3.23;;;;;;;;;;5094073;28;20447;-58
2022/10/05 00:20:40;;;;;;;3.20;3.00;;;;;;;;;;5093961;28;20451;-59
2022/10/05 00:23:12;;;;;;;3.33;2.93;;;;;;;;;;5093858;28;20477;-59
2022/10/05 00:25:39;;;;;;;3.27;2.97;;;;;;;;;;5094079;28;20600;-59
2022/10/05 00:28:13;;;;;;;3.50;3.20;;;;;;;;;;5094012;28;20446;-59
2022/10/05 00:30:40;;;;;;;4.10;3.40;;;;;;;;;;5093923;28;20776;-59
2022/10/05 00:33:07;;;;;;;5.10;3.27;;;;;;;;;;5094172;28;20546;-59
2022/10/05 00:35:36;;;;;;;3.80;3.50;;;;;;;;;;5093822;28;20565;-60
2022/10/05 00:38:03;;;;;;;5.43;3.27;;;;;;;;;;5093792;28;20443;-59
2022/10/05 00:40:37;;;;;;;3.70;3.30;;;;;;;;;;5093787;28;20442;-59
2022/10/05 00:43:13;;;;;;;6.77;3.33;;;;;;;;;;5093578;28;20751;-59
2022/10/05 00:45:43;;;;;;;4.27;3.30;;;;;;;;;;5092718;28;20456;-59
2022/10/05 00:48:17;;;;;;;4.20;3.40;;;;;;;;;;5093697;28;20885;-59
2022/10/05 00:50:54;;;;;;;6.40;3.80;;;;;;;;;;5093530;28;20457;-59
2022/10/05 00:53:25;;;;;;;3.30;3.00;;;;;;;;;;5093467;28;20887;-59
2022/10/05 00:55:58;;;;;;;3.23;2.93;;;;;;;;;;5093328;28;20837;-59
2022/10/05 00:58:29;;;;;;;4.27;3.37;;;;;;;;;;5093485;28;20455;-60
2022/10/05 01:01:03;;;;;;;5.67;3.77;;;;;;;;;;5093294;28;20487;-59
2022/10/05 01:03:33;;;;;;;4.10;3.50;;;;;;;;;;5093332;28;20446;-59
2022/10/05 01:06:08;;;;;;;3.07;2.87;;;;;;;;;;5093292;28;20454;-59
2022/10/05 01:08:41;;;;;;;3.40;3.10;;;;;;;;;;5093064;28;20468;-59
2022/10/05 01:11:11;;;;;;;3.60;3.17;;;;;;;;;;5093348;28;20476;-59
2022/10/05 01:13:43;;;;;;;3.40;3.10;;;;;;;;;;5093191;28;20450;-59
2022/10/05 01:16:11;;;;;;;3.43;3.10;;;;;;;;;;5093194;28;20458;-59
2022/10/05 01:18:41;;;;;;;3.30;3.10;;;;;;;;;;5093031;28;20493;-59
2022/10/05 01:21:15;;;;;;;4.60;3.33;;;;;;;;;;5093007;28;20457;-59
2022/10/05 01:24:07;;;;;;;5.20;3.83;;;;;;;;;;5092772;28;21064;-59
2022/10/05 01:26:50;;;;;;;3.40;2.63;;;;;;;;;;5093028;28;20453;-59
2022/10/05 01:29:19;;;;;;;3.27;3.07;;;;;;;;;;5092893;28;20454;-59
2022/10/05 01:31:50;;;;;;;4.53;3.30;;;;;;;;;;5093063;28;20453;-59
2022/10/05 01:34:23;;;;;;;6.37;2.80;;;;;;;;;;5092946;28;20523;-59
2022/10/05 01:36:54;;;;;;;3.40;3.10;;;;;;;;;;5092988;28;20446;-59
2022/10/05 01:39:24;;;;;;;5.27;2.83;;;;;;;;;;5092966;28;20446;-59
2022/10/05 01:41:55;;;;;;;3.90;3.60;;;;;;;;;;5092718;28;20442;-59
2022/10/05 01:44:27;;;;;;;7.40;4.00;;;;;;;;;;5093025;28;20897;-59
2022/10/05 01:46:57;;;;;;;6.63;3.40;;;;;;;;;;5092879;28;20814;-59
2022/10/05 01:49:32;;;;;;;3.30;3.00;;;;;;;;;;5092713;28;20671;-59
2022/10/05 01:52:05;;;;;;;4.40;3.17;;;;;;;;;;5092727;28;20983;-58
2022/10/05 01:54:36;;;;;;;3.57;3.27;;;;;;;;;;5092920;28;20819;-59
2022/10/05 01:57:06;;;;;;;4.40;3.50;;;;;;;;;;5095940;28;20453;-59
2022/10/05 01:59:42;;;;;;;6.13;2.93;;;;;;;;;;5096840;28;20446;-59
2022/10/05 02:02:11;;;;;;;3.40;3.20;;;;;;;;;;5096782;28;20592;-59
2022/10/05 02:04:41;;;;;;;3.83;3.30;;;;;;;;;;5096619;28;20442;-59
2022/10/05 02:07:12;;;;;;;7.30;3.23;;;;;;;;;;5096937;28;20446;-59
2022/10/05 02:09:43;;;;;;;5.80;3.80;;;;;;;;;;5096575;28;20936;-59
2022/10/05 02:12:13;;;;;;;3.23;3.03;;;;;;;;;;5096696;28;20543;-59
2022/10/05 02:14:43;;;;;;;6.30;3.27;;;;;;;;;;5096516;28;20484;-59
2022/10/05 02:17:14;;;;;;;3.17;2.87;;;;;;;;;;5096358;28;20450;-59
2022/10/05 02:19:42;;;;;;;5.07;3.37;;;;;;;;;;5096608;28;20450;-59
2022/10/05 02:22:11;;;;;;;4.50;3.03;;;;;;;;;;5096300;28;20470;-59
2022/10/05 02:24:41;;;;;;;5.83;3.07;;;;;;;;;;5096368;28;20840;-59
2022/10/05 02:27:09;;;;;;;3.83;2.70;;;;;;;;;;5096289;28;20442;-58
2022/10/05 02:29:37;;;;;;;3.47;3.17;;;;;;;;;;5096120;28;20452;-59
2022/10/05 02:32:10;;;;;;;3.63;3.43;;;;;;;;;;5096397;28;20476;-59
2022/10/05 02:34:38;;;;;;;3.60;3.40;;;;;;;;;;5096193;28;20474;-59
2022/10/05 02:37:12;;;;;;;3.83;3.43;;;;;;;;;;5096180;28;20546;-59
2022/10/05 02:39:45;;;;;;;3.83;2.90;;;;;;;;;;5096108;28;20450;-59
2022/10/05 02:42:16;;;;;;;3.60;3.10;;;;;;;;;;5095991;28;20457;-59
2022/10/05 02:44:46;;;;;;;6.07;4.40;;;;;;;;;;5096151;28;20451;-59
2022/10/05 02:47:18;;;;;;;3.63;3.40;;;;;;;;;;5096009;28;20455;-59
2022/10/05 02:49:48;;;;;;;4.23;3.50;;;;;;;;;;5095939;28;20541;-59
2022/10/05 02:52:19;;;;;;;4.33;3.00;;;;;;;;;;5095787;28;20563;-59
2022/10/05 02:54:51;;;;;;;5.17;2.70;;;;;;;;;;5095639;28;20476;-59
2022/10/05 02:57:24;;;;;;;2.77;2.57;;;;;;;;;;5095877;28;20457;-59
2022/10/05 02:59:54;;;;;;;6.67;3.40;;;;;;;;;;5095793;28;20814;-59
2022/10/05 03:02:24;;;;;;;5.30;3.57;;;;;;;;;;5095618;28;20540;-59
2022/10/05 03:04:56;;;;;;;3.13;2.93;;;;;;;;;;5095581;28;20449;-59
2022/10/05 03:07:24;;;;;;;3.57;3.23;;;;;;;;;;5094891;28;20770;-59
2022/10/05 03:09:57;;;;;;;5.60;3.40;;;;;;;;;;5095587;28;20529;-59
2022/10/05 03:12:35;;;;;;;4.10;3.20;;;;;;;;;;5095529;28;20809;-59
2022/10/05 03:15:09;;;;;;;3.73;3.10;;;;;;;;;;5095295;28;20929;-59
2022/10/05 03:17:42;;;;;;;7.00;3.33;;;;;;;;;;5095177;28;20859;-59
2022/10/05 03:20:15;;;;;;;3.87;3.07;;;;;;;;;;5095443;28;20561;-60
2022/10/05 03:22:47;;;;;;;3.67;3.47;;;;;;;;;;5095068;28;20478;-59
2022/10/05 03:25:35;;;;;;;7.60;3.27;;;;;;;;;;5095113;28;20447;-59
2022/10/05 03:28:05;;;;;;;6.10;3.00;;;;;;;;;;5088721;28;20480;-60
2022/10/05 03:30:36;;;;;;;5.30;3.23;;;;;;;;;;5095307;28;20825;-60
2022/10/05 03:33:08;;;;;;;3.30;3.00;;;;;;;;;;5095102;28;20450;-60
2022/10/05 03:35:40;;;;;;;3.30;3.07;;;;;;;;;;5094989;28;20482;-60
2022/10/05 03:38:10;;;;;;;5.70;3.60;;;;;;;;;;5094972;28;20941;-60
2022/10/05 03:40:40;;;;;;;3.97;3.30;;;;;;;;;;5094763;28;20955;-59
2022/10/05 03:43:15;;;;;;;3.57;3.27;;;;;;;;;;5094920;28;20442;-60
2022/10/05 03:45:47;;;;;;;5.13;2.97;;;;;;;;;;5094608;28;20975;-59
2022/10/05 03:48:18;;;;;;;7.10;3.97;;;;;;;;;;5094687;28;20889;-60
2022/10/05 03:50:46;;;;;;;7.67;3.90;;;;;;;;;;5094620;28;20447;-59
2022/10/05 03:53:18;;;;;;;6.93;3.20;;;;;;;;;;5094491;28;20960;-60
2022/10/05 03:55:48;;;;;;;6.10;3.57;;;;;;;;;;5094661;28;20822;-60
2022/10/05 03:58:18;;;;;;;3.80;3.40;;;;;;;;;;5094613;28;20549;-59
2022/10/05 04:00:47;;;;;;;3.40;3.10;;;;;;;;;;5094510;28;20450;-60
2022/10/05 04:03:21;;;;;;;4.13;3.50;;;;;;;;;;5094325;28;20454;-60
2022/10/05 04:05:50;;;;;;;3.30;3.00;;;;;;;;;;5094513;28;20543;-60
2022/10/05 04:08:21;;;;;;;4.97;3.67;;;;;;;;;;5094360;28;20458;-59
2022/10/05 04:10:50;;;;;;;3.30;3.00;;;;;;;;;;5094361;28;20450;-59
2022/10/05 04:13:21;;;;;;;5.07;3.10;;;;;;;;;;5094264;28;20454;-59
2022/10/05 04:15:51;;;;;;;3.60;3.20;;;;;;;;;;5094086;28;20478;-60
2022/10/05 04:18:24;;;;;;;3.80;3.33;;;;;;;;;;5094334;28;20443;-59
2022/10/05 04:20:54;;;;;;;7.27;3.60;;;;;;;;;;5094239;28;20453;-59
2022/10/05 04:23:25;;;;;;;5.90;3.47;;;;;;;;;;5093818;28;20478;-59
2022/10/05 04:25:54;;;;;;;5.67;3.00;;;;;;;;;;5093952;28;20473;-59
2022/10/05 04:28:25;;;;;;;4.73;3.30;;;;;;;;;;5093902;28;20454;-60
2022/10/05 04:30:53;;;;;;;4.17;3.40;;;;;;;;;;5093944;28;20446;-59
2022/10/05 04:33:22;;;;;;;4.70;3.30;;;;;;;;;;5093700;28;20946;-60
2022/10/05 04:35:54;;;;;;;4.37;4.00;;;;;;;;;;5093715;28;20830;-60
2022/10/05 04:38:28;;;;;;;3.13;2.93;;;;;;;;;;5093862;28;20868;-60
2022/10/05 04:41:05;;;;;;;7.10;3.80;;;;;;;;;;5093471;28;20538;-60
2022/10/05 04:43:35;;;;;;;5.57;3.90;;;;;;;;;;5093814;28;20450;-60
2022/10/05 04:46:10;;;;;;;3.97;3.57;;;;;;;;;;5093665;28;20450;-60
2022/10/05 04:48:53;;;;;;;3.17;2.93;;;;;;;;;;5093606;28;20450;-60
2022/10/05 04:51:30;;;;;;;3.93;3.47;;;;;;;;;;5093299;28;20451;-60
2022/10/05 04:53:59;;;;;;;3.37;3.07;;;;;;;;;;5093419;28;20454;-60
2022/10/05 04:56:31;;;;;;;4.03;2.70;;;;;;;;;;5093158;28;20482;-60
2022/10/05 04:59:07;;;;;;;4.20;3.03;;;;;;;;;;5093245;28;20457;-60
2022/10/05 05:01:43;;;;;;;3.63;3.10;;;;;;;;;;5093280;28;20453;-59
2022/10/05 05:04:19;;;;;;;3.63;2.90;;;;;;;;;;5093348;28;20442;-59
2022/10/05 05:06:50;;;;;;;3.87;3.27;;;;;;;;;;5093289;28;20454;-60
2022/10/05 05:09:28;;;;;;;4.57;3.10;;;;;;;;;;5093234;28;20456;-59
2022/10/05 05:12:02;;;;;;;3.40;3.10;;;;;;;;;;5093116;28;20537;-60
2022/10/05 05:14:34;;;;;;;3.57;3.23;;;;;;;;;;5093065;28;20446;-60
2022/10/05 05:17:09;;;;;;;5.33;2.93;;;;;;;;;;5093139;28;20483;-60
2022/10/05 05:19:42;;;;;;;3.70;3.40;;;;;;;;;;5093167;28;20460;-60
2022/10/05 05:22:18;;;;;;;5.60;3.47;;;;;;;;;;5092891;28;20474;-63
2022/10/05 05:24:52;;;;;;;5.10;3.47;;;;;;;;;;5092824;28;21013;-60
2022/10/05 05:27:31;;;;;;;3.87;3.17;;;;;;;;;;5093195;28;20880;-60
2022/10/05 05:30:02;;;;;;;3.83;3.27;;;;;;;;;;5092569;28;20442;-60
2022/10/05 05:32:36;;;;;;;6.23;4.00;;;;;;;;;;5092732;28;20845;-60
2022/10/05 05:35:14;;;;;;;3.50;3.20;;;;;;;;;;5092540;28;20817;-60
2022/10/05 05:37:46;;;;;;;6.17;2.67;;;;;;;;;;5093060;28;20450;-60
2022/10/05 05:40:16;;;;;;;3.83;3.33;;;;;;;;;;5092770;28;21027;-59
2022/10/05 05:42:49;;;;;;;3.77;2.70;;;;;;;;;;5092833;28;20446;-59
2022/10/05 05:45:18;;;;;;;2.80;2.60;;;;;;;;;;5092719;28;20497;-59
2022/10/05 05:47:50;;;;;;;4.70;3.47;;;;;;;;;;5092613;28;20813;-60
2022/10/05 05:50:24;;;;;;;3.47;2.93;;;;;;;;;;5092467;28;20975;-60
2022/10/05 05:52:54;;;;;;;4.03;3.03;;;;;;;;;;5092818;28;20537;-59
2022/10/05 05:55:24;;;;;;;7.00;5.27;;;;;;;;;;5092347;28;20951;-59
2022/10/05 05:57:53;;;;;;;6.17;4.90;;;;;;;;;;5092460;28;20469;-60
2022/10/05 06:00:21;;;;;;;5.00;3.10;;;;;;;;;;5092396;28;20488;-59
2022/10/05 06:02:51;;;;;;;3.30;3.00;;;;;;;;;;5092411;28;20541;-59
2022/10/05 06:05:24;;;;;;;4.83;2.97;;;;;;;;;;5092560;28;20450;-59
2022/10/05 06:07:53;;;;;;;3.40;2.77;;;;;;;;;;5092617;28;20453;-59
2022/10/05 06:10:25;;;;;;;7.43;2.93;;;;;;;;;;5092447;28;20809;-59
2022/10/05 06:12:53;;;;;;;6.80;2.90;;;;;;;;;;5092743;28;20451;-59
2022/10/05 06:15:24;;;;;;;3.20;2.43;;;;;;;;;;5092390;28;20453;-59
2022/10/05 06:17:53;;;;;;;3.30;2.70;;;;;;;;;;5092551;28;20453;-60
2022/10/05 06:20:23;;;;;;;3.40;3.10;;;;;;;;;;5092391;28;20449;-60
2022/10/05 06:22:52;;;;;;;2.93;2.70;;;;;;;;;;5092279;28;20463;-60
2022/10/05 06:25:24;;;;;;;8.97;2.97;;;;;;;;;;5092525;28;20537;-60
2022/10/05 06:28:02;;;;;;;2.67;2.47;;;;;;;;;;5092264;28;20446;-59
2022/10/05 06:30:33;;;;;;;3.73;3.00;;;;;;;;;;5092445;28;20450;-59
2022/10/05 06:33:06;;;;;;;3.17;2.87;;;;;;;;;;5092314;28;20540;-59
2022/10/05 06:35:39;;;;;;;4.00;2.90;;;;;;;;;;5092211;28;20875;-60
2022/10/05 06:38:15;;;;;;;3.30;2.80;;;;;;;;;;5092479;28;20442;-60
2022/10/05 06:40:54;;;;;;;4.67;3.30;;;;;;;;;;5092324;28;20525;-59
2022/10/05 06:43:28;;;;;;;2.93;2.37;;;;;;;;;;5093875;28;20457;-60
2022/10/05 06:46:00;;;;;;;3.20;2.90;;;;;;;;;;5095820;28;20941;-60
2022/10/05 06:48:32;;;;;;;3.17;2.87;;;;;;;;;;5095923;28;20482;-60
2022/10/05 06:51:02;;;;;;;3.10;2.90;;;;;;;;;;5095841;28;20946;-61
2022/10/05 06:53:34;;;;;;;3.00;2.03;;;;;;;;;;5095638;28;20485;-59
2022/10/05 06:56:06;;;;;;;2.40;2.20;;;;;;;;;;5095361;28;20474;-60
2022/10/05 06:58:42;;;;;;;4.40;2.77;;;;;;;;;;5095382;28;20443;-60
2022/10/05 07:01:11;;;;;;;2.60;2.40;;;;;;;;;;5095639;28;20523;-60
2022/10/05 07:03:42;;;;;;;4.20;2.40;;;;;;;;;;5095532;28;20447;-60
2022/10/05 07:06:14;;;;;;;4.13;2.80;;;;;;;;;;5095414;28;20451;-59
2022/10/05 07:08:48;;;;;;;3.20;2.70;;;;;;;;;;5095443;28;20873;-60
2022/10/05 07:11:22;;;;;;;2.70;2.50;;;;;;;;;;5095555;28;20474;-59
2022/10/05 07:14:01;;;;;;;3.57;2.67;;;;;;;;;;5095388;28;20450;-59
2022/10/05 07:16:36;;;;;;;3.60;2.00;;;;;;;;;;5095329;28;20470;-59
2022/10/05 07:19:09;;;;;;;2.33;2.10;;;;;;;;;;5095351;28;20454;-60
2022/10/05 07:21:42;;;;;;;2.60;2.40;;;;;;;;;;5094872;28;20450;-59
2022/10/05 07:24:21;;;;;;;5.80;2.67;;;;;;;;;;5095302;28;20445;-60
2022/10/05 07:26:51;;;;;;;2.60;2.40;;;;;;;;;;5095245;28;20456;-59
2022/10/05 07:29:23;;;;;;;4.27;2.67;;;;;;;;;;5095005;28;20447;-59
2022/10/05 07:31:54;;;;;;;3.87;2.50;;;;;;;;;;5094789;28;20473;-60
2022/10/05 07:34:27;;;;;;;2.70;2.50;;;;;;;;;;5094774;28;20442;-60
2022/10/05 07:39:45;;;;;;;7.07;2.40;;;;;;;;;;5074438;28;20852;-63
2022/10/05 07:42:19;;;;;;;2.40;2.20;;;;;;;;;;5074274;28;20803;-61
2022/10/05 07:44:51;;;;;;;3.67;2.17;;;;;;;;;;5074591;28;20530;-61
2022/10/05 07:47:24;;;;;;;6.10;2.60;;;;;;;;;;5074501;28;20463;-61
2022/10/05 07:49:56;;;;;;;2.70;2.20;;;;;;;;;;5074447;28;20474;-63
2022/10/05 07:52:25;;;;;;;3.10;2.43;;;;;;;;;;5073980;28;20950;-61
2022/10/05 07:54:58;;;;;;;4.40;2.47;;;;;;;;;;5073757;28;20445;-63
2022/10/05 07:57:31;;;;;;;2.33;2.13;;;;;;;;;;5074233;28;20499;-62
2022/10/05 08:00:01;;;;;;;3.77;3.17;;;;;;;;;;5074258;28;20810;-62
2022/10/05 08:02:30;;;;;;;4.27;2.83;;;;;;;;;;5074096;28;20483;-61
2022/10/05 08:05:00;;;;;;;9.13;2.27;;;;;;;;;;5073994;28;20470;-62
2022/10/05 08:07:29;;;;;;;2.50;1.80;;;;;;;;;;5073991;28;20450;-62
2022/10/05 08:10:01;;;;;;;2.40;2.20;;;;;;;;;;5074006;28;20455;-61
2022/10/05 08:12:32;;;;;;;4.27;2.13;;;;;;;;;;5073893;28;20451;-61
2022/10/05 08:15:03;;;;;;;5.60;2.60;;;;;;;;;;5073791;28;20520;-58
2022/10/05 08:17:36;;;;;;;3.50;2.10;;;;;;;;;;5073729;28;20570;-60
2022/10/05 08:20:06;;;;;;;5.80;2.60;;;;;;;;;;5073921;28;20457;-57
2022/10/05 08:22:37;;;;;;;2.53;2.33;;;;;;;;;;5073665;28;20869;-58
2022/10/05 08:25:10;;;;;;;1.97;1.87;;;;;;;;;;5073781;28;20450;-59
2022/10/05 08:27:42;;;;;;;2.07;1.90;;;;;;;;;;5073315;28;20526;-58
2022/10/05 08:30:11;;;;;;;7.80;2.17;;;;;;;;;;5073218;28;20514;-61
2022/10/05 08:32:40;;;;;;;3.90;2.70;;;;;;;;;;5073400;28;20943;-63
2022/10/05 08:35:14;;;;;;;3.80;2.23;;;;;;;;;;5073484;28;20444;-58
2022/10/05 08:37:42;;;;;;;1.93;1.83;;;;;;;;;;5073186;28;20483;-62
2022/10/05 08:40:35;;;;;;;2.40;2.00;;;;;;;;;;5077626;28;20448;-63
2022/10/05 08:43:07;;;;;;;3.07;2.13;;;;;;;;;;5073465;28;20447;-62
2022/10/05 08:45:46;;;;;;;2.23;1.90;;;;;;;;;;5073094;28;20509;-64
2022/10/05 08:48:26;;;;;;;3.83;2.10;;;;;;;;;;5072976;28;20451;-65
2022/10/05 08:51:06;;;;;;;5.80;2.27;;;;;;;;;;5072627;28;20450;-65
2022/10/05 08:53:38;;;;;;;4.93;2.70;;;;;;;;;;5073159;28;20539;-65
2022/10/05 08:56:24;;;;;;;2.87;2.60;;;;;;;;;;5073059;28;20542;-64
2022/10/05 08:59:02;;;;;;;5.37;2.10;;;;;;;;;;5073119;28;20451;-64
2022/10/05 09:01:35;;;;;;;6.80;2.30;;;;;;;;;;5072935;28;20893;-63
2022/10/05 09:04:12;;;;;;;7.60;2.67;;;;;;;;;;5073111;28;20454;-63
2022/10/05 09:06:50;;;;;;;2.10;1.90;;;;;;;;;;5072389;28;20461;-62
2022/10/05 09:09:27;;;;;;;3.60;2.27;;;;;;;;;;5078098;28;20450;-66
2022/10/05 09:12:03;;;;;;;3.80;2.20;;;;;;;;;;5076939;28;21037;-65
2022/10/05 09:14:38;;;;;;;2.60;2.20;;;;;;;;;;5087158;28;20442;-61
2022/10/05 09:17:17;;;;;;;5.70;3.27;;;;;;;;;;5093070;28;20842;-61
2022/10/05 09:19:51;;;;;;;3.07;2.50;;;;;;;;;;5093129;28;20442;-62
2022/10/05 09:22:24;;;;;;;3.77;3.17;;;;;;;;;;5092637;28;20906;-62
2022/10/05 09:24:56;;;;;;;4.73;2.33;;;;;;;;;;5092936;28;20542;-62
2022/10/05 09:27:34;;;;;;;4.00;2.80;;;;;;;;;;5083839;28;20796;-60
2022/10/05 09:30:05;;;;;;;4.40;2.57;;;;;;;;;;5072683;28;20443;-60
2022/10/05 09:32:39;;;;;;;3.33;2.40;;;;;;;;;;5072481;28;20499;-60
2022/10/05 09:35:16;;;;;;;4.00;3.50;;;;;;;;;;5072841;28;20454;-61
2022/10/05 09:37:53;;;;;;;3.20;3.00;;;;;;;;;;5072494;28;20486;-59
2022/10/05 09:40:29;;;;;;;5.70;3.37;;;;;;;;;;5072584;28;20806;-65
2022/10/05 09:43:08;;;;;;;2.87;2.30;;;;;;;;;;5072526;28;20943;-59
2022/10/05 09:45:42;;;;;;;5.80;3.07;;;;;;;;;;5072255;28;20534;-59
2022/10/05 09:48:35;;;;;;;3.70;2.77;;;;;;;;;;5072573;28;20451;-60
2022/10/05 09:51:09;;;;;;;3.47;3.17;;;;;;;;;;5072451;28;20542;-57
2022/10/05 09:53:54;;;;;;;3.57;2.90;;;;;;;;;;5072477;28;20866;-62
2022/10/05 09:56:34;;;;;;;6.37;2.70;;;;;;;;;;5072121;28;20447;-64
2022/10/05 09:59:18;;;;;;;3.07;2.77;;;;;;;;;;5072701;28;20884;-63
2022/10/05 10:01:53;;;;;;;3.80;2.83;;;;;;;;;;5072093;28;20450;-62
2022/10/05 10:04:39;;;;;;;11.50;2.83;;;;;;;;;;5072391;28;20541;-62
2022/10/05 10:07:22;;;;;;;4.50;3.50;;;;;;;;;;5072447;28;20474;-63
2022/10/05 10:09:59;;;;;;;3.87;2.50;;;;;;;;;;5072257;28;20450;-62
2022/10/05 10:12:33;;;;;;;3.17;2.90;;;;;;;;;;5072166;28;21015;-63
2022/10/05 10:15:15;;;;;;;10.93;3.07;;;;;;;;;;5071972;28;20479;-63
2022/10/05 10:17:56;;;;;;;5.93;4.63;;;;;;;;;;5074277;28;20486;-64
2022/10/05 10:20:30;;;;;;;3.27;2.97;;;;;;;;;;5076103;28;20487;-64
2022/10/05 10:23:08;;;;;;;2.73;2.53;;;;;;;;;;5075954;28;21063;-58
2022/10/05 10:25:49;;;;;;;3.07;2.80;;;;;;;;;;5076116;28;20501;-59
2022/10/05 10:28:26;;;;;;;3.83;3.00;;;;;;;;;;5058816;28;20439;-59
2022/10/05 10:31:00;;;;;;;3.53;2.53;;;;;;;;;;5075349;28;20479;-59
2022/10/05 10:33:43;;;;;;;3.00;2.70;;;;;;;;;;5075757;28;20458;-59
2022/10/05 10:36:14;;;;;;;2.80;2.57;;;;;;;;;;5075640;28;20538;-58
2022/10/05 10:38:47;;;;;;;3.10;2.80;;;;;;;;;;5075721;28;20570;-59
2022/10/05 10:41:31;;;;;;;3.20;2.97;;;;;;;;;;5075678;28;20479;-59
2022/10/05 10:44:06;;;;;;;3.00;2.60;;;;;;;;;;5075747;28;20559;-59
2022/10/05 10:46:40;;;;;;;3.27;2.93;;;;;;;;;;5075637;28;20451;-59
2022/10/05 10:49:16;;;;;;;7.13;3.37;;;;;;;;;;5075570;28;20456;-59
2022/10/05 10:51:52;;;;;;;3.30;2.77;;;;;;;;;;5075230;28;20814;-59
2022/10/05 10:54:24;;;;;;;2.90;2.70;;;;;;;;;;5075567;28;20446;-59
2022/10/05 10:56:57;;;;;;;3.10;2.83;;;;;;;;;;5075235;28;20443;-59
2022/10/05 10:59:51;;;;;;;3.30;3.00;;;;;;;;;;5075426;28;20560;-59
2022/10/05 11:02:35;;;;;;;3.00;2.70;;;;;;;;;;5075287;28;20447;-59
2022/10/05 11:05:08;;;;;;;4.70;3.13;;;;;;;;;;5075460;28;20447;-59
2022/10/05 11:07:48;;;;;;;3.70;3.07;;;;;;;;;;5075441;28;20447;-59
2022/10/05 11:10:19;;;;;;;3.50;3.20;;;;;;;;;;5075180;28;20474;-59
2022/10/05 11:13:13;;;;;;;2.93;2.63;;;;;;;;;;5075241;28;20919;-59
2022/10/05 11:15:49;;;;;;;3.17;2.90;;;;;;;;;;5075128;28;21001;-59
2022/10/05 11:18:21;;;;;;;4.17;2.77;;;;;;;;;;5075040;28;20475;-59
2022/10/05 11:21:03;;;;;;;2.53;2.40;;;;;;;;;;5074898;28;20853;-59
2022/10/05 11:23:34;;;;;;;3.50;3.20;;;;;;;;;;5074833;28;21101;-59
2022/10/05 11:26:10;;;;;;;2.93;2.70;;;;;;;;;;5074993;28;20799;-59
2022/10/05 11:28:54;;;;;;;4.73;2.77;;;;;;;;;;5074005;28;20451;-59
2022/10/05 11:31:37;;;;;;;3.73;2.67;;;;;;;;;;5074717;28;20482;-59
2022/10/05 11:34:25;;;;;;;4.27;2.73;;;;;;;;;;5074645;28;20927;-58
2022/10/05 11:37:07;;;;;;;6.63;3.30;;;;;;;;;;5067939;28;20448;-59
2022/10/05 11:39:41;;;;;;;2.80;2.60;;;;;;;;;;5071614;28;20459;-59
2022/10/05 11:42:29;;;;;;;3.50;2.80;;;;;;;;;;5074852;28;20454;-59
2022/10/05 11:45:10;;;;;;;2.50;2.30;;;;;;;;;;5068255;28;20462;-59
2022/10/05 11:47:40;;;;;;;3.03;2.80;;;;;;;;;;5074484;28;20451;-59
2022/10/05 11:50:16;;;;;;;2.63;2.43;;;;;;;;;;5074338;28;20447;-59
2022/10/05 11:52:47;;;;;;;5.50;2.87;;;;;;;;;;5074300;28;20925;-59
2022/10/05 11:55:19;;;;;;;2.70;2.17;;;;;;;;;;5074432;28;20449;-59
2022/10/05 11:57:49;;;;;;;2.83;2.43;;;;;;;;;;5074269;28;20475;-59
2022/10/05 12:00:18;;;;;;;2.90;2.13;;;;;;;;;;5074214;28;20447;-59
2022/10/05 12:02:51;;;;;;;3.20;2.00;;;;;;;;;;5074063;28;20930;-59
2022/10/05 12:05:20;;;;;;;2.47;2.33;;;;;;;;;;5074038;28;20451;-59
2022/10/05 12:07:54;;;;;;;2.23;2.00;;;;;;;;;;5073843;28;20831;-59
2022/10/05 12:10:31;;;;;;;3.13;2.43;;;;;;;;;;5074082;28;20811;-59
2022/10/05 12:13:05;;;;;;;2.67;2.47;;;;;;;;;;5073669;28;20454;-59
2022/10/05 12:15:37;;;;;;;2.37;2.10;;;;;;;;;;5074030;28;20811;-59
2022/10/05 12:18:07;;;;;;;2.20;2.00;;;;;;;;;;5073860;28;20483;-59
2022/10/05 12:20:39;;;;;;;2.10;1.90;;;;;;;;;;5073753;28;20451;-59
2022/10/05 12:23:11;;;;;;;2.00;1.90;;;;;;;;;;5073410;28;20993;-59
2022/10/05 12:25:44;;;;;;;2.73;2.03;;;;;;;;;;5073566;28;20447;-59
2022/10/05 12:28:12;;;;;;;1.77;1.67;;;;;;;;;;5073606;28;20465;-59
2022/10/05 12:30:56;;;;;;;2.70;2.33;;;;;;;;;;5073670;28;20444;-59
2022/10/05 12:33:27;;;;;;;2.60;2.20;;;;;;;;;;5073480;28;20538;-59
2022/10/05 12:35:57;;;;;;;2.00;1.90;;;;;;;;;;5073349;28;20529;-59
2022/10/05 12:38:28;;;;;;;2.33;2.20;;;;;;;;;;5073456;28;20838;-59
2022/10/05 12:40:59;;;;;;;6.87;2.07;;;;;;;;;;5072515;28;20448;-59
2022/10/05 12:43:29;;;;;;;2.00;1.80;;;;;;;;;;5073446;28;20451;-59
2022/10/05 12:46:08;;;;;;;3.53;2.30;;;;;;;;;;5073267;28;21011;-59
2022/10/05 12:48:48;;;;;;;1.93;1.77;;;;;;;;;;5073235;28;20483;-59
2022/10/05 12:51:17;;;;;;;4.40;1.73;;;;;;;;;;5073497;28;20443;-58
2022/10/05 12:53:49;;;;;;;3.00;2.17;;;;;;;;;;5072976;28;20450;-58
2022/10/05 12:56:22;;;;;;;1.93;1.83;;;;;;;;;;5073149;28;20444;-58
2022/10/05 12:58:52;;;;;;;2.53;1.70;;;;;;;;;;5072979;28;20475;-59
2022/10/05 13:01:25;;;;;;;1.87;1.77;;;;;;;;;;5073220;28;20450;-58
2022/10/05 13:03:55;;;;;;;2.27;2.00;;;;;;;;;;5073098;28;20452;-58
2022/10/05 13:06:26;;;;;;;2.40;1.93;;;;;;;;;;5072949;28;20452;-58
2022/10/05 13:08:56;;;;;;;2.80;2.37;;;;;;;;;;5072971;28;20447;-59
2022/10/05 13:11:28;;;;;;;4.83;2.10;;;;;;;;;;5072828;28;20455;-58
2022/10/05 13:13:58;;;;;;;2.23;2.03;;;;;;;;;;5073078;28;20447;-58
2022/10/05 13:16:30;;;;;;;4.13;2.20;;;;;;;;;;5073109;28;20450;-58
2022/10/05 13:19:02;;;;;;;2.23;2.03;;;;;;;;;;5072889;28;20489;-58
2022/10/05 13:21:32;;;;;;;2.70;1.83;;;;;;;;;;5072687;28;20454;-58
2022/10/05 13:24:02;;;;;;;20.17;2.43;;;;;;;;;;5072719;28;20534;-58
2022/10/05 13:26:33;;;;;;;5.30;2.43;;;;;;;;;;5072829;28;20810;-58
2022/10/05 13:29:03;;;;;;;5.67;2.60;;;;;;;;;;5072687;28;21042;-58
2022/10/05 13:31:32;;;;;;;3.43;2.00;;;;;;;;;;5072677;28;20513;-58
2022/10/05 13:34:08;;;;;;;3.53;1.90;;;;;;;;;;5072743;28;21024;-58
2022/10/05 13:36:39;;;;;;;1.90;1.67;;;;;;;;;;5072637;28;20533;-58
2022/10/05 13:39:15;;;;;;;1.83;1.73;;;;;;;;;;5072563;28;20483;-59
2022/10/05 13:41:50;;;;;;;2.30;2.10;;;;;;;;;;5072412;28;20970;-58
2022/10/05 13:44:22;;;;;;;1.90;1.80;;;;;;;;;;5072656;28;20481;-58
2022/10/05 13:46:50;;;;;;;3.37;1.80;;;;;;;;;;5072473;28;20547;-58
2022/10/05 13:49:22;;;;;;;2.63;2.10;;;;;;;;;;5072473;28;20459;-58
2022/10/05 13:51:54;;;;;;;3.03;2.10;;;;;;;;;;5073413;28;20539;-58
2022/10/05 13:54:22;;;;;;;3.20;1.70;;;;;;;;;;5076715;28;20546;-58
2022/10/05 13:56:54;;;;;;;2.40;2.20;;;;;;;;;;5076628;28;20451;-58
2022/10/05 13:59:25;;;;;;;3.83;1.70;;;;;;;;;;5076451;28;20486;-58
2022/10/05 14:01:57;;;;;;;1.70;1.60;;;;;;;;;;5076695;28;20448;-58
2022/10/05 14:04:27;;;;;;;2.60;2.40;;;;;;;;;;5076509;28;20444;-58
2022/10/05 14:06:54;;;;;;;2.30;2.10;;;;;;;;;;5076497;28;20451;-58
2022/10/05 14:09:29;;;;;;;2.30;2.20;;;;;;;;;;5076384;28;20526;-58
2022/10/05 14:12:10;;;;;;;2.30;2.20;;;;;;;;;;5076089;28;20454;-58
2022/10/05 14:14:43;;;;;;;2.97;2.03;;;;;;;;;;5076458;28;20830;-58
2022/10/05 14:17:13;;;;;;;4.27;1.97;;;;;;;;;;5076278;28;20544;-58
2022/10/05 14:19:42;;;;;;;2.37;2.23;;;;;;;;;;5075975;28;20489;-58
2022/10/05 14:22:12;;;;;;;2.70;2.00;;;;;;;;;;5075815;28;20475;-58
2022/10/05 14:24:47;;;;;;;2.53;2.33;;;;;;;;;;5076134;28;20531;-58
2022/10/05 14:27:20;;;;;;;2.10;2.00;;;;;;;;;;5076029;28;20455;-58
2022/10/05 14:29:54;;;;;;;2.27;2.00;;;;;;;;;;5076009;28;20451;-58
2022/10/05 14:32:23;;;;;;;2.90;2.70;;;;;;;;;;5075794;28;20459;-58
2022/10/05 14:34:56;;;;;;;3.73;2.10;;;;;;;;;;5075709;28;20473;-58
2022/10/05 14:37:24;;;;;;;4.70;2.20;;;;;;;;;;5075760;28;20980;-58
2022/10/05 14:39:53;;;;;;;4.50;2.40;;;;;;;;;;5075709;28;20487;-58
2022/10/05 14:42:23;;;;;;;2.70;2.10;;;;;;;;;;5075775;28;20451;-58
2022/10/05 14:45:00;;;;;;;3.63;2.60;;;;;;;;;;5075637;28;20451;-58
2022/10/05 14:47:29;;;;;;;2.27;2.13;;;;;;;;;;5075583;28;20497;-58
2022/10/05 14:50:16;;;;;;;2.70;2.50;;;;;;;;;;5075651;28;20542;-58
2022/10/05 14:52:46;;;;;;;2.60;2.40;;;;;;;;;;5075653;28;20641;-58
2022/10/05 14:55:22;;;;;;;2.73;2.60;;;;;;;;;;5075522;28;20483;-58
2022/10/05 14:57:57;;;;;;;2.73;2.33;;;;;;;;;;5075388;28;20802;-58
2022/10/05 15:00:24;;;;;;;3.67;2.80;;;;;;;;;;5075674;28;20447;-58
2022/10/05 15:03:04;;;;;;;2.83;2.63;;;;;;;;;;5074914;28;20447;-58
2022/10/05 15:05:33;;;;;;;2.93;2.73;;;;;;;;;;5075129;28;20453;-58
2022/10/05 15:08:07;;;;;;;5.83;2.90;;;;;;;;;;5075094;28;20451;-58
2022/10/05 15:10:36;;;;;;;6.37;2.50;;;;;;;;;;5075426;28;20439;-58
2022/10/05 15:13:10;;;;;;;5.53;2.90;;;;;;;;;;5075305;28;20542;-58
2022/10/05 15:15:40;;;;;;;4.40;2.77;;;;;;;;;;5075306;28;20459;-58
2022/10/05 15:18:15;;;;;;;2.70;2.50;;;;;;;;;;5075107;28;20458;-58
2022/10/05 15:20:48;;;;;;;2.40;2.30;;;;;;;;;;5075052;28;20457;-58